sensor_id;sensor_type;location;lat;lon;timestamp;pressure;altitude;pressure_sealevel;temperature;humidity
24306;BME280;12423;48.768;8.850;2022-11-24T00:00:00;96252.72;;;7.34;100.00
24306;BME280;12423;48.768;8.850;2022-11-24T00:02:01;96249.69;;;7.38;100.00
24306;BME280;12423;48.768;8.850;2022-11-24T00:04:03;96253.34;;;7.47;100.00
24306;BME280;12423;48.768;8.850;2022-11-24T00:06:06;96251.56;;;7.48;100.00
24306;BME280;12423;48.768;8.850;2022-11-24T00:08:08;96258.84;;;7.55;100.00
24306;BME280;12423;48.768;8.850;2022-11-24T00:10:09;96250.88;;;7.55;100.00
24306;BME280;12423;48.768;8.850;2022-11-24T00:12:10;96258.16;;;7.53;100.00
24306;BME280;12423;48.768;8.850;2022-11-24T00:14:12;96258.66;;;7.47;100.00
24306;BME280;12423;48.768;8.850;2022-11-24T00:16:23;96259.47;;;7.38;100.00
24306;BME280;12423;48.768;8.850;2022-11-24T00:18:26;96261.16;;;7.39;100.00
24306;BME280;12423;48.768;8.850;2022-11-24T00:20:27;96259.91;;;7.43;100.00
24306;BME280;12423;48.768;8.850;2022-11-24T00:22:28;96259.78;;;7.45;100.00
24306;BME280;12423;48.768;8.850;2022-11-24T00:24:28;96265.94;;;7.45;100.00
24306;BME280;12423;48.768;8.850;2022-11-24T00:26:32;96269.31;;;7.47;100.00
24306;BME280;12423;48.768;8.850;2022-11-24T00:28:34;96263.16;;;7.47;100.00
24306;BME280;12423;48.768;8.850;2022-11-24T00:30:35;96271.56;;;7.52;100.00
24306;BME280;12423;48.768;8.850;2022-11-24T00:32:36;96278.41;;;7.45;100.00
24306;BME280;12423;48.768;8.850;2022-11-24T00:34:37;96274.72;;;7.36;100.00
24306;BME280;12423;48.768;8.850;2022-11-24T00:36:38;96282.41;;;7.39;100.00
24306;BME280;12423;48.768;8.850;2022-11-24T00:38:40;96285.47;;;7.34;100.00
24306;BME280;12423;48.768;8.850;2022-11-24T00:40:41;96287.38;;;7.23;100.00
24306;BME280;12423;48.768;8.850;2022-11-24T00:42:42;96283.97;;;7.20;100.00
24306;BME280;12423;48.768;8.850;2022-11-24T00:44:43;96290.47;;;7.28;100.00
24306;BME280;12423;48.768;8.850;2022-11-24T00:46:44;96282.75;;;7.25;100.00
24306;BME280;12423;48.768;8.850;2022-11-24T00:48:45;96284.97;;;7.19;100.00
24306;BME280;12423;48.768;8.850;2022-11-24T00:50:57;96284.50;;;7.14;100.00
24306;BME280;12423;48.768;8.850;2022-11-24T00:52:58;96292.00;;;7.09;100.00
24306;BME280;12423;48.768;8.850;2022-11-24T00:54:59;96299.72;;;7.12;100.00
24306;BME280;12423;48.768;8.850;2022-11-24T00:57:00;96305.06;;;7.01;100.00
24306;BME280;12423;48.768;8.850;2022-11-24T00:59:01;96301.91;;;7.07;100.00
24306;BME280;12423;48.768;8.850;2022-11-24T01:01:04;96307.59;;;7.03;100.00
24306;BME280;12423;48.768;8.850;2022-11-24T01:03:05;96305.56;;;7.06;100.00
24306;BME280;12423;48.768;8.850;2022-11-24T01:05:06;96316.94;;;6.97;100.00
24306;BME280;12423;48.768;8.850;2022-11-24T01:07:07;96317.91;;;6.96;100.00
24306;BME280;12423;48.768;8.850;2022-11-24T01:09:08;96321.56;;;6.83;100.00
24306;BME280;12423;48.768;8.850;2022-11-24T01:11:14;96337.03;;;6.78;100.00
24306;BME280;12423;48.768;8.850;2022-11-24T01:13:15;96328.22;;;6.78;100.00
24306;BME280;12423;48.768;8.850;2022-11-24T01:15:16;96329.78;;;6.80;100.00
24306;BME280;12423;48.768;8.850;2022-11-24T01:17:17;96327.50;;;6.76;100.00
24306;BME280;12423;48.768;8.850;2022-11-24T01:19:18;96338.75;;;6.68;100.00
24306;BME280;12423;48.768;8.850;2022-11-24T01:21:20;96343.09;;;6.69;100.00
24306;BME280;12423;48.768;8.850;2022-11-24T01:23:21;96345.13;;;6.77;100.00
24306;BME280;12423;48.768;8.850;2022-11-24T01:25:22;96346.91;;;6.76;100.00
24306;BME280;12423;48.768;8.850;2022-11-24T01:27:23;96346.84;;;6.67;100.00
24306;BME280;12423;48.768;8.850;2022-11-24T01:29:24;96344.25;;;6.76;100.00
24306;BME280;12423;48.768;8.850;2022-11-24T01:31:26;96343.69;;;6.73;100.00
24306;BME280;12423;48.768;8.850;2022-11-24T01:33:27;96348.88;;;6.63;100.00
24306;BME280;12423;48.768;8.850;2022-11-24T01:35:28;96353.84;;;6.56;100.00
24306;BME280;12423;48.768;8.850;2022-11-24T01:37:29;96349.63;;;6.65;100.00
24306;BME280;12423;48.768;8.850;2022-11-24T01:39:30;96354.97;;;6.54;100.00
24306;BME280;12423;48.768;8.850;2022-11-24T01:41:32;96354.38;;;6.50;100.00
24306;BME280;12423;48.768;8.850;2022-11-24T01:43:33;96354.63;;;6.47;100.00
24306;BME280;12423;48.768;8.850;2022-11-24T01:45:37;96360.50;;;6.51;100.00
24306;BME280;12423;48.768;8.850;2022-11-24T01:47:41;96358.59;;;6.41;100.00
24306;BME280;12423;48.768;8.850;2022-11-24T01:49:53;96353.28;;;6.41;100.00
24306;BME280;12423;48.768;8.850;2022-11-24T01:52:05;96356.78;;;6.42;100.00
24306;BME280;12423;48.768;8.850;2022-11-24T01:54:13;96362.22;;;6.40;100.00
24306;BME280;12423;48.768;8.850;2022-11-24T01:56:15;96368.00;;;6.34;100.00
24306;BME280;12423;48.768;8.850;2022-11-24T01:58:20;96363.66;;;6.33;100.00
24306;BME280;12423;48.768;8.850;2022-11-24T02:00:23;96363.06;;;6.30;100.00
24306;BME280;12423;48.768;8.850;2022-11-24T02:02:27;96361.63;;;6.25;100.00
24306;BME280;12423;48.768;8.850;2022-11-24T02:04:31;96363.53;;;6.23;100.00
24306;BME280;12423;48.768;8.850;2022-11-24T02:06:34;96368.97;;;6.22;100.00
24306;BME280;12423;48.768;8.850;2022-11-24T02:08:51;96370.91;;;6.20;100.00
24306;BME280;12423;48.768;8.850;2022-11-24T02:10:53;96368.72;;;6.14;100.00
24306;BME280;12423;48.768;8.850;2022-11-24T02:12:55;96369.00;;;6.11;100.00
24306;BME280;12423;48.768;8.850;2022-11-24T02:14:57;96369.00;;;6.11;100.00
24306;BME280;12423;48.768;8.850;2022-11-24T02:16:58;96374.53;;;6.07;100.00
24306;BME280;12423;48.768;8.850;2022-11-24T02:19:00;96375.84;;;6.02;100.00
24306;BME280;12423;48.768;8.850;2022-11-24T02:21:01;96371.16;;;6.05;100.00
24306;BME280;12423;48.768;8.850;2022-11-24T02:23:19;96377.31;;;6.06;100.00
24306;BME280;12423;48.768;8.850;2022-11-24T02:27:29;96361.16;;;6.09;100.00
24306;BME280;12423;48.768;8.850;2022-11-24T02:29:30;96364.28;;;6.03;100.00
24306;BME280;12423;48.768;8.850;2022-11-24T02:31:31;96369.13;;;5.98;100.00
24306;BME280;12423;48.768;8.850;2022-11-24T02:33:33;96368.75;;;6.02;100.00
24306;BME280;12423;48.768;8.850;2022-11-24T02:35:34;96360.06;;;6.12;100.00
24306;BME280;12423;48.768;8.850;2022-11-24T02:37:35;96367.06;;;6.13;100.00
24306;BME280;12423;48.768;8.850;2022-11-24T02:39:36;96366.34;;;5.99;100.00
24306;BME280;12423;48.768;8.850;2022-11-24T02:41:40;96361.88;;;6.00;100.00
24306;BME280;12423;48.768;8.850;2022-11-24T02:43:47;96357.88;;;5.94;100.00
24306;BME280;12423;48.768;8.850;2022-11-24T02:45:49;96366.22;;;6.01;100.00
24306;BME280;12423;48.768;8.850;2022-11-24T02:47:50;96370.66;;;6.00;100.00
24306;BME280;12423;48.768;8.850;2022-11-24T02:49:51;96373.94;;;6.04;100.00
24306;BME280;12423;48.768;8.850;2022-11-24T02:51:52;96381.03;;;6.03;100.00
24306;BME280;12423;48.768;8.850;2022-11-24T02:53:53;96371.03;;;6.07;100.00
24306;BME280;12423;48.768;8.850;2022-11-24T02:55:54;96367.19;;;6.00;100.00
24306;BME280;12423;48.768;8.850;2022-11-24T02:57:55;96382.50;;;6.07;100.00
24306;BME280;12423;48.768;8.850;2022-11-24T02:59:55;96383.22;;;6.09;100.00
24306;BME280;12423;48.768;8.850;2022-11-24T03:01:56;96383.22;;;6.09;100.00
24306;BME280;12423;48.768;8.850;2022-11-24T03:03:57;96380.44;;;6.11;100.00
24306;BME280;12423;48.768;8.850;2022-11-24T03:05:58;96374.91;;;6.14;100.00
24306;BME280;12423;48.768;8.850;2022-11-24T03:07:59;96376.34;;;6.18;100.00
24306;BME280;12423;48.768;8.850;2022-11-24T03:10:00;96386.09;;;6.18;100.00
24306;BME280;12423;48.768;8.850;2022-11-24T03:12:01;96378.97;;;6.18;100.00
24306;BME280;12423;48.768;8.850;2022-11-24T03:14:03;96382.97;;;6.24;100.00
24306;BME280;12423;48.768;8.850;2022-11-24T03:16:07;96380.69;;;6.19;100.00
24306;BME280;12423;48.768;8.850;2022-11-24T03:18:08;96392.38;;;6.17;100.00
24306;BME280;12423;48.768;8.850;2022-11-24T03:20:09;96384.91;;;6.11;100.00
24306;BME280;12423;48.768;8.850;2022-11-24T03:22:12;96390.09;;;6.12;100.00
24306;BME280;12423;48.768;8.850;2022-11-24T03:24:12;96393.00;;;6.20;100.00
24306;BME280;12423;48.768;8.850;2022-11-24T03:26:16;96393.94;;;6.19;100.00
24306;BME280;12423;48.768;8.850;2022-11-24T03:28:17;96396.47;;;6.21;100.00
24306;BME280;12423;48.768;8.850;2022-11-24T03:30:18;96394.78;;;6.20;100.00
24306;BME280;12423;48.768;8.850;2022-11-24T03:32:19;96401.19;;;6.17;100.00
24306;BME280;12423;48.768;8.850;2022-11-24T03:34:20;96402.13;;;6.16;100.00
24306;BME280;12423;48.768;8.850;2022-11-24T03:36:21;96396.13;;;6.25;100.00
24306;BME280;12423;48.768;8.850;2022-11-24T03:38:22;96404.31;;;6.22;100.00
24306;BME280;12423;48.768;8.850;2022-11-24T03:40:23;96404.78;;;6.27;100.00
24306;BME280;12423;48.768;8.850;2022-11-24T03:42:24;96404.91;;;6.26;100.00
24306;BME280;12423;48.768;8.850;2022-11-24T03:44:25;96408.50;;;6.25;100.00
24306;BME280;12423;48.768;8.850;2022-11-24T03:46:26;96400.78;;;6.22;100.00
24306;BME280;12423;48.768;8.850;2022-11-24T03:48:27;96403.84;;;6.17;100.00
24306;BME280;12423;48.768;8.850;2022-11-24T03:50:28;96403.97;;;6.16;100.00
24306;BME280;12423;48.768;8.850;2022-11-24T03:52:28;96415.16;;;6.19;100.00
24306;BME280;12423;48.768;8.850;2022-11-24T03:54:29;96419.00;;;6.15;100.00
24306;BME280;12423;48.768;8.850;2022-11-24T03:56:30;96416.84;;;6.20;100.00
24306;BME280;12423;48.768;8.850;2022-11-24T03:58:31;96408.03;;;6.31;100.00
24306;BME280;12423;48.768;8.850;2022-11-24T04:00:32;96412.88;;;6.26;100.00
24306;BME280;12423;48.768;8.850;2022-11-24T04:02:33;96411.75;;;6.28;100.00
24306;BME280;12423;48.768;8.850;2022-11-24T04:04:34;96411.41;;;6.33;100.00
24306;BME280;12423;48.768;8.850;2022-11-24T04:06:35;96420.22;;;6.34;100.00
24306;BME280;12423;48.768;8.850;2022-11-24T04:08:36;96427.56;;;6.30;100.00
24306;BME280;12423;48.768;8.850;2022-11-24T04:10:38;96429.50;;;6.28;100.00
24306;BME280;12423;48.768;8.850;2022-11-24T04:12:39;96434.81;;;6.28;100.00
24306;BME280;12423;48.768;8.850;2022-11-24T04:14:45;96432.88;;;6.30;100.00
24306;BME280;12423;48.768;8.850;2022-11-24T04:16:46;96438.91;;;6.32;100.00
24306;BME280;12423;48.768;8.850;2022-11-24T04:18:50;96428.53;;;6.29;100.00
24306;BME280;12423;48.768;8.850;2022-11-24T04:20:51;96431.44;;;6.26;100.00
24306;BME280;12423;48.768;8.850;2022-11-24T04:22:52;96428.31;;;6.21;100.00
24306;BME280;12423;48.768;8.850;2022-11-24T04:24:53;96435.78;;;6.16;100.00
24306;BME280;12423;48.768;8.850;2022-11-24T04:26:54;96431.66;;;6.12;100.00
24306;BME280;12423;48.768;8.850;2022-11-24T04:28:55;96444.44;;;6.18;100.00
24306;BME280;12423;48.768;8.850;2022-11-24T04:31:01;96443.63;;;6.17;100.00
24306;BME280;12423;48.768;8.850;2022-11-24T04:33:02;96451.47;;;6.19;100.00
24306;BME280;12423;48.768;8.850;2022-11-24T04:35:03;96449.53;;;6.21;100.00
24306;BME280;12423;48.768;8.850;2022-11-24T04:37:04;96452.16;;;6.09;100.00
24306;BME280;12423;48.768;8.850;2022-11-24T04:39:05;96452.38;;;6.06;100.00
24306;BME280;12423;48.768;8.850;2022-11-24T04:41:06;96440.72;;;6.09;100.00
24306;BME280;12423;48.768;8.850;2022-11-24T04:43:08;96447.91;;;6.07;100.00
24306;BME280;12423;48.768;8.850;2022-11-24T04:45:09;96438.53;;;6.03;100.00
24306;BME280;12423;48.768;8.850;2022-11-24T04:47:21;96439.06;;;5.95;100.00
24306;BME280;12423;48.768;8.850;2022-11-24T04:49:22;96439.91;;;5.84;100.00
24306;BME280;12423;48.768;8.850;2022-11-24T04:51:23;96444.84;;;5.78;100.00
24306;BME280;12423;48.768;8.850;2022-11-24T04:53:24;96453.72;;;5.65;100.00
24306;BME280;12423;48.768;8.850;2022-11-24T04:55:25;96450.13;;;5.66;100.00
24306;BME280;12423;48.768;8.850;2022-11-24T04:57:26;96455.53;;;5.65;100.00
24306;BME280;12423;48.768;8.850;2022-11-24T04:59:27;96445.50;;;5.57;100.00
24306;BME280;12423;48.768;8.850;2022-11-24T05:01:28;96443.81;;;5.56;100.00
24306;BME280;12423;48.768;8.850;2022-11-24T05:03:29;96445.50;;;5.57;100.00
24306;BME280;12423;48.768;8.850;2022-11-24T05:05:31;96442.59;;;5.49;100.00
24306;BME280;12423;48.768;8.850;2022-11-24T05:07:32;96455.56;;;5.41;100.00
24306;BME280;12423;48.768;8.850;2022-11-24T05:09:33;96465.16;;;5.30;100.00
24306;BME280;12423;48.768;8.850;2022-11-24T05:11:34;96460.19;;;5.26;100.00
24306;BME280;12423;48.768;8.850;2022-11-24T05:13:35;96457.16;;;5.19;100.00
24306;BME280;12423;48.768;8.850;2022-11-24T05:15:37;96464.19;;;5.07;100.00
24306;BME280;12423;48.768;8.850;2022-11-24T05:17:38;96467.78;;;5.06;100.00
24306;BME280;12423;48.768;8.850;2022-11-24T05:19:39;96479.47;;;5.04;100.00
24306;BME280;12423;48.768;8.850;2022-11-24T05:21:40;96474.16;;;5.04;100.00
24306;BME280;12423;48.768;8.850;2022-11-24T05:23:41;96469.31;;;4.97;100.00
24306;BME280;12423;48.768;8.850;2022-11-24T05:25:42;96467.69;;;5.08;100.00
24306;BME280;12423;48.768;8.850;2022-11-24T05:27:43;96478.28;;;5.08;100.00
24306;BME280;12423;48.768;8.850;2022-11-24T05:29:44;96474.78;;;5.07;100.00
24306;BME280;12423;48.768;8.850;2022-11-24T05:31:45;96477.88;;;5.01;100.00
24306;BME280;12423;48.768;8.850;2022-11-24T05:33:46;96477.31;;;5.09;100.00
24306;BME280;12423;48.768;8.850;2022-11-24T05:35:50;96475.97;;;5.27;100.00
24306;BME280;12423;48.768;8.850;2022-11-24T05:37:51;96471.50;;;5.28;100.00
24306;BME280;12423;48.768;8.850;2022-11-24T05:39:52;96473.59;;;5.35;100.00
24306;BME280;12423;48.768;8.850;2022-11-24T05:41:54;96469.63;;;5.30;100.00
24306;BME280;12423;48.768;8.850;2022-11-24T05:43:55;96475.53;;;5.33;100.00
24306;BME280;12423;48.768;8.850;2022-11-24T05:46:00;96477.44;;;5.31;100.00
24306;BME280;12423;48.768;8.850;2022-11-24T05:48:09;96469.63;;;5.30;100.00
24306;BME280;12423;48.768;8.850;2022-11-24T05:50:13;96476.59;;;5.31;100.00
24306;BME280;12423;48.768;8.850;2022-11-24T05:52:15;96478.28;;;5.32;100.00
24306;BME280;12423;48.768;8.850;2022-11-24T05:54:16;96481.88;;;5.31;100.00
24306;BME280;12423;48.768;8.850;2022-11-24T05:56:17;96475.09;;;5.51;100.00
24306;BME280;12423;48.768;8.850;2022-11-24T05:58:18;96467.94;;;5.64;100.00
24306;BME280;12423;48.768;8.850;2022-11-24T06:00:19;96461.25;;;5.83;100.00
24306;BME280;12423;48.768;8.850;2022-11-24T06:02:20;96465.94;;;5.79;100.00
24306;BME280;12423;48.768;8.850;2022-11-24T06:04:21;96468.22;;;5.84;100.00
24306;BME280;12423;48.768;8.850;2022-11-24T06:06:22;96454.16;;;5.95;100.00
24306;BME280;12423;48.768;8.850;2022-11-24T06:08:23;96462.09;;;5.95;100.00
24306;BME280;12423;48.768;8.850;2022-11-24T06:10:24;96460.53;;;5.92;100.00
24306;BME280;12423;48.768;8.850;2022-11-24T06:12:24;96460.56;;;6.03;100.00
24306;BME280;12423;48.768;8.850;2022-11-24T06:14:25;96465.50;;;5.97;100.00
24306;BME280;12423;48.768;8.850;2022-11-24T06:16:26;96474.06;;;6.00;100.00
24306;BME280;12423;48.768;8.850;2022-11-24T06:18:27;96482.50;;;6.05;100.00
24306;BME280;12423;48.768;8.850;2022-11-24T06:20:28;96485.31;;;6.04;100.00
24306;BME280;12423;48.768;8.850;2022-11-24T06:22:29;96491.94;;;6.09;100.00
24306;BME280;12423;48.768;8.850;2022-11-24T06:24:30;96487.56;;;6.08;100.00
24306;BME280;12423;48.768;8.850;2022-11-24T06:26:31;96487.56;;;6.08;100.00
24306;BME280;12423;48.768;8.850;2022-11-24T06:28:32;96502.19;;;6.14;100.00
24306;BME280;12423;48.768;8.850;2022-11-24T06:30:33;96501.13;;;6.28;100.00
24306;BME280;12423;48.768;8.850;2022-11-24T06:32:34;96508.34;;;6.26;100.00
24306;BME280;12423;48.768;8.850;2022-11-24T06:34:35;96507.41;;;6.27;100.00
24306;BME280;12423;48.768;8.850;2022-11-24T06:36:37;96501.59;;;6.33;100.00
24306;BME280;12423;48.768;8.850;2022-11-24T06:38:38;96503.31;;;6.34;100.00
24306;BME280;12423;48.768;8.850;2022-11-24T06:40:39;96521.16;;;6.32;100.00
24306;BME280;12423;48.768;8.850;2022-11-24T06:42:40;96525.50;;;6.44;100.00
24306;BME280;12423;48.768;8.850;2022-11-24T06:44:41;96525.50;;;6.44;100.00
24306;BME280;12423;48.768;8.850;2022-11-24T06:46:42;96529.72;;;6.47;100.00
24306;BME280;12423;48.768;8.850;2022-11-24T06:48:43;96537.94;;;6.44;100.00
24306;BME280;12423;48.768;8.850;2022-11-24T06:50:44;96540.22;;;6.37;100.00
24306;BME280;12423;48.768;8.850;2022-11-24T06:52:45;96542.25;;;6.45;100.00
24306;BME280;12423;48.768;8.850;2022-11-24T06:54:46;96545.50;;;6.37;100.00
24306;BME280;12423;48.768;8.850;2022-11-24T06:56:47;96544.41;;;6.40;100.00
24306;BME280;12423;48.768;8.850;2022-11-24T06:58:50;96549.34;;;6.33;100.00
24306;BME280;12423;48.768;8.850;2022-11-24T07:00:52;96553.94;;;6.31;100.00
24306;BME280;12423;48.768;8.850;2022-11-24T07:02:52;96556.59;;;6.31;100.00
24306;BME280;12423;48.768;8.850;2022-11-24T07:04:53;96567.19;;;6.31;100.00
24306;BME280;12423;48.768;8.850;2022-11-24T07:06:54;96571.06;;;6.27;100.00
24306;BME280;12423;48.768;8.850;2022-11-24T07:08:55;96587.81;;;6.27;100.00
24306;BME280;12423;48.768;8.850;2022-11-24T07:11:02;96582.84;;;6.23;100.00
24306;BME280;12423;48.768;8.850;2022-11-24T07:13:07;96588.66;;;6.28;100.00
24306;BME280;12423;48.768;8.850;2022-11-24T07:15:08;96592.41;;;6.25;100.00
24306;BME280;12423;48.768;8.850;2022-11-24T07:17:09;96593.34;;;6.24;100.00
24306;BME280;12423;48.768;8.850;2022-11-24T07:19:10;96598.03;;;6.21;100.00
24306;BME280;12423;48.768;8.850;2022-11-24T07:21:12;96594.66;;;6.19;100.00
24306;BME280;12423;48.768;8.850;2022-11-24T07:23:13;96595.28;;;6.22;100.00
24306;BME280;12423;48.768;8.850;2022-11-24T07:25:14;96596.59;;;6.28;100.00
24306;BME280;12423;48.768;8.850;2022-11-24T07:27:17;96615.41;;;6.25;100.00
24306;BME280;12423;48.768;8.850;2022-11-24T07:29:17;96623.25;;;6.26;100.00
24306;BME280;12423;48.768;8.850;2022-11-24T07:31:20;96636.63;;;6.25;100.00
24306;BME280;12423;48.768;8.850;2022-11-24T07:33:24;96633.84;;;6.26;100.00
24306;BME280;12423;48.768;8.850;2022-11-24T07:35:26;96645.56;;;6.24;100.00
24306;BME280;12423;48.768;8.850;2022-11-24T07:37:27;96640.13;;;6.25;100.00
24306;BME280;12423;48.768;8.850;2022-11-24T07:39:28;96651.31;;;6.18;100.00
24306;BME280;12423;48.768;8.850;2022-11-24T07:41:29;96647.06;;;6.15;100.00
24306;BME280;12423;48.768;8.850;2022-11-24T07:43:31;96649.28;;;6.21;100.00
24306;BME280;12423;48.768;8.850;2022-11-24T07:45:32;96653.03;;;6.19;100.00
24306;BME280;12423;48.768;8.850;2022-11-24T07:47:37;96655.41;;;6.11;100.00
24306;BME280;12423;48.768;8.850;2022-11-24T07:49:38;96655.84;;;6.04;100.00
24306;BME280;12423;48.768;8.850;2022-11-24T07:51:39;96641.59;;;6.05;100.00
24306;BME280;12423;48.768;8.850;2022-11-24T07:53:40;96641.97;;;6.01;100.00
24306;BME280;12423;48.768;8.850;2022-11-24T07:55:42;96630.59;;;5.99;100.00
24306;BME280;12423;48.768;8.850;2022-11-24T07:57:42;96635.38;;;5.94;100.00
24306;BME280;12423;48.768;8.850;2022-11-24T07:59:43;96636.25;;;5.94;100.00
24306;BME280;12423;48.768;8.850;2022-11-24T08:01:44;96637.91;;;5.95;100.00
24306;BME280;12423;48.768;8.850;2022-11-24T08:03:46;96631.78;;;5.95;100.00
24306;BME280;12423;48.768;8.850;2022-11-24T08:05:58;96636.03;;;5.97;100.00
24306;BME280;12423;48.768;8.850;2022-11-24T08:07:59;96626.81;;;5.90;100.00
24306;BME280;12423;48.768;8.850;2022-11-24T08:10:00;96636.56;;;5.89;100.00
24306;BME280;12423;48.768;8.850;2022-11-24T08:12:01;96645.38;;;5.90;100.00
24306;BME280;12423;48.768;8.850;2022-11-24T08:14:02;96648.84;;;5.90;100.00
24306;BME280;12423;48.768;8.850;2022-11-24T08:16:08;96657.38;;;5.83;100.00
24306;BME280;12423;48.768;8.850;2022-11-24T08:18:10;96655.97;;;5.90;100.00
24306;BME280;12423;48.768;8.850;2022-11-24T08:20:11;96653.94;;;5.94;100.00
24306;BME280;12423;48.768;8.850;2022-11-24T08:22:12;96655.91;;;5.79;100.00
24306;BME280;12423;48.768;8.850;2022-11-24T08:24:13;96660.69;;;5.73;100.00
24306;BME280;12423;48.768;8.850;2022-11-24T08:26:16;96652.31;;;5.80;100.00
24306;BME280;12423;48.768;8.850;2022-11-24T08:28:18;96657.59;;;5.80;100.00
24306;BME280;12423;48.768;8.850;2022-11-24T08:30:19;96664.94;;;5.76;100.00
24306;BME280;12423;48.768;8.850;2022-11-24T08:32:20;96653.59;;;5.74;100.00
24306;BME280;12423;48.768;8.850;2022-11-24T08:34:25;96654.00;;;5.81;100.00
24306;BME280;12423;48.768;8.850;2022-11-24T08:36:26;96658.44;;;5.80;100.00
24306;BME280;12423;48.768;8.850;2022-11-24T08:38:27;96669.03;;;5.80;100.00
24306;BME280;12423;48.768;8.850;2022-11-24T08:40:27;96675.31;;;5.79;100.00
24306;BME280;12423;48.768;8.850;2022-11-24T08:42:29;96664.38;;;5.84;100.00
24306;BME280;12423;48.768;8.850;2022-11-24T08:44:29;96665.63;;;5.91;100.00
24306;BME280;12423;48.768;8.850;2022-11-24T08:46:30;96656.91;;;6.02;100.00
24306;BME280;12423;48.768;8.850;2022-11-24T08:48:32;96658.28;;;6.07;100.00
24306;BME280;12423;48.768;8.850;2022-11-24T08:50:33;96668.06;;;6.18;100.00
24306;BME280;12423;48.768;8.850;2022-11-24T08:52:35;96675.28;;;6.16;100.00
24306;BME280;12423;48.768;8.850;2022-11-24T08:54:36;96674.75;;;6.24;100.00
24306;BME280;12423;48.768;8.850;2022-11-24T08:56:37;96674.47;;;6.16;100.00
24306;BME280;12423;48.768;8.850;2022-11-24T08:58:38;96673.47;;;6.17;100.00
24306;BME280;12423;48.768;8.850;2022-11-24T09:00:39;96664.56;;;6.18;100.00
24306;BME280;12423;48.768;8.850;2022-11-24T09:02:40;96660.88;;;6.20;100.00
24306;BME280;12423;48.768;8.850;2022-11-24T09:04:42;96680.25;;;6.21;100.00
24306;BME280;12423;48.768;8.850;2022-11-24T09:06:44;96670.19;;;6.37;100.00
24306;BME280;12423;48.768;8.850;2022-11-24T09:08:45;96676.53;;;6.59;100.00
24306;BME280;12423;48.768;8.850;2022-11-24T09:10:46;96681.00;;;6.58;100.00
24306;BME280;12423;48.768;8.850;2022-11-24T09:12:47;96676.78;;;6.56;100.00
24306;BME280;12423;48.768;8.850;2022-11-24T09:14:48;96689.22;;;6.55;100.00
24306;BME280;12423;48.768;8.850;2022-11-24T09:16:49;96690.69;;;6.71;100.00
24306;BME280;12423;48.768;8.850;2022-11-24T09:18:55;96700.84;;;6.77;100.00
24306;BME280;12423;48.768;8.850;2022-11-24T09:21:17;96687.19;;;6.70;100.00
24306;BME280;12423;48.768;8.850;2022-11-24T09:23:18;96701.56;;;6.79;100.00
24306;BME280;12423;48.768;8.850;2022-11-24T09:25:19;96699.72;;;6.57;100.00
24306;BME280;12423;48.768;8.850;2022-11-24T09:27:20;96705.91;;;6.44;100.00
24306;BME280;12423;48.768;8.850;2022-11-24T09:29:21;96700.28;;;6.49;100.00
24306;BME280;12423;48.768;8.850;2022-11-24T09:31:25;96705.97;;;6.56;100.00
24306;BME280;12423;48.768;8.850;2022-11-24T09:33:27;96706.34;;;6.62;100.00
24306;BME280;12423;48.768;8.850;2022-11-24T09:35:27;96717.94;;;6.73;100.00
24306;BME280;12423;48.768;8.850;2022-11-24T09:37:31;96723.31;;;6.84;100.00
24306;BME280;12423;48.768;8.850;2022-11-24T09:39:32;96721.16;;;7.00;100.00
24306;BME280;12423;48.768;8.850;2022-11-24T09:41:43;96727.56;;;7.09;100.00
24306;BME280;12423;48.768;8.850;2022-11-24T09:46:29;96740.69;;;6.99;100.00
24306;BME280;12423;48.768;8.850;2022-11-24T09:48:36;96743.78;;;7.06;100.00
24306;BME280;12423;48.768;8.850;2022-11-24T09:50:41;96750.03;;;7.05;100.00
24306;BME280;12423;48.768;8.850;2022-11-24T09:55:03;96751.13;;;7.14;100.00
24306;BME280;12423;48.768;8.850;2022-11-24T09:57:06;96752.47;;;7.19;100.00
24306;BME280;12423;48.768;8.850;2022-11-24T09:59:20;96760.69;;;7.16;100.00
24306;BME280;12423;48.768;8.850;2022-11-24T10:01:30;96753.47;;;7.30;100.00
24306;BME280;12423;48.768;8.850;2022-11-24T10:03:40;96749.47;;;7.47;100.00
24306;BME280;12423;48.768;8.850;2022-11-24T10:05:47;96746.13;;;7.56;100.00
24306;BME280;12423;48.768;8.850;2022-11-24T10:08:02;96756.25;;;7.62;100.00
24306;BME280;12423;48.768;8.850;2022-11-24T10:10:24;96744.53;;;7.76;100.00
24306;BME280;12423;48.768;8.850;2022-11-24T10:20:08;96740.31;;;7.51;100.00
24306;BME280;12423;48.768;8.850;2022-11-24T10:22:43;96739.84;;;7.46;100.00
24306;BME280;12423;48.768;8.850;2022-11-24T10:25:28;96736.56;;;7.53;100.00
24306;BME280;12423;48.768;8.850;2022-11-24T10:27:35;96740.78;;;7.45;100.00
24306;BME280;12423;48.768;8.850;2022-11-24T10:29:40;96748.06;;;7.54;100.00
24306;BME280;12423;48.768;8.850;2022-11-24T10:31:42;96745.00;;;7.81;100.00
24306;BME280;12423;48.768;8.850;2022-11-24T10:33:45;96751.00;;;8.17;100.00
24306;BME280;12423;48.768;8.850;2022-11-24T10:36:05;96746.38;;;8.30;100.00
24306;BME280;12423;48.768;8.850;2022-11-24T10:40:34;96751.34;;;8.24;100.00
24306;BME280;12423;48.768;8.850;2022-11-24T10:42:37;96751.50;;;8.11;100.00
24306;BME280;12423;48.768;8.850;2022-11-24T10:44:40;96753.69;;;7.94;100.00
24306;BME280;12423;48.768;8.850;2022-11-24T10:46:42;96755.16;;;7.87;100.00
24306;BME280;12423;48.768;8.850;2022-11-24T10:48:57;96756.34;;;7.94;100.00
24306;BME280;12423;48.768;8.850;2022-11-24T10:51:37;96752.09;;;8.03;100.00
24306;BME280;12423;48.768;8.850;2022-11-24T10:53:43;96751.69;;;8.30;100.00
24306;BME280;12423;48.768;8.850;2022-11-24T10:58:13;96741.78;;;8.76;100.00
24306;BME280;12423;48.768;8.850;2022-11-24T11:02:31;96734.38;;;9.01;100.00
24306;BME280;12423;48.768;8.850;2022-11-24T11:04:34;96742.16;;;9.14;100.00
24306;BME280;12423;48.768;8.850;2022-11-24T11:06:35;96743.41;;;9.10;100.00
24306;BME280;12423;48.768;8.850;2022-11-24T11:08:38;96748.16;;;9.06;100.00
24306;BME280;12423;48.768;8.850;2022-11-24T11:10:40;96749.44;;;9.12;100.00